createdAt,value
2022-12-27T00:01:47.999Z,1.25
2022-12-27T00:04:16.575Z,2.08
2022-12-27T00:06:44.999Z,1.30
2022-12-27T00:09:13.227Z,1.63
2022-12-27T00:11:41.550Z,1.85
2022-12-27T00:14:16.568Z,1.40
2022-12-27T00:16:47.081Z,1.75
2022-12-27T00:19:15.494Z,1.45
2022-12-27T00:21:43.934Z,1.70
2022-12-27T00:24:12.622Z,1.25
2022-12-27T00:26:41.830Z,1.75
2022-12-27T00:29:12.180Z,1.25
2022-12-27T00:31:42.445Z,1.85
2022-12-27T00:34:10.796Z,1.50
2022-12-27T00:36:41.013Z,0.98
2022-12-27T00:39:15.089Z,1.17
2022-12-27T00:41:45.404Z,1.20
2022-12-27T00:44:15.145Z,2.25
2022-12-27T00:46:43.434Z,1.60
2022-12-27T00:49:11.805Z,1.25
2022-12-27T00:51:40.110Z,1.25
2022-12-27T00:54:08.583Z,1.10
2022-12-27T00:56:40.770Z,0.95
2022-12-27T00:59:09.138Z,1.25
2022-12-27T01:01:40.797Z,1.08
2022-12-27T01:04:11.633Z,1.40
2022-12-27T01:06:40.481Z,1.17
2022-12-27T01:09:10.942Z,1.58
2022-12-27T01:11:39.245Z,1.02
2022-12-27T01:14:07.464Z,1.30
2022-12-27T01:16:38.452Z,2.28
2022-12-27T01:19:08.175Z,1.23
2022-12-27T01:21:38.777Z,1.15
2022-12-27T01:24:07.719Z,1.80
2022-12-27T01:26:36.044Z,1.00
2022-12-27T01:29:04.459Z,1.33
2022-12-27T01:31:32.779Z,1.33
2022-12-27T01:34:05.630Z,1.15
2022-12-27T01:36:37.973Z,0.90
2022-12-27T01:39:06.800Z,1.58
2022-12-27T01:41:54.540Z,1.60
2022-12-27T01:44:56.151Z,2.38
2022-12-27T01:47:31.279Z,1.00
2022-12-27T01:50:02.756Z,2.35
2022-12-27T01:52:36.281Z,1.45
2022-12-27T01:55:09.136Z,1.65
2022-12-27T01:57:37.566Z,1.45
2022-12-27T02:00:06.237Z,1.30
2022-12-27T02:02:37.814Z,1.30
2022-12-27T02:05:06.744Z,1.67
2022-12-27T02:07:40.379Z,1.42
2022-12-27T02:10:08.931Z,1.70
2022-12-27T02:12:37.208Z,1.20
2022-12-27T02:15:07.718Z,1.60
2022-12-27T02:17:36.428Z,1.25
2022-12-27T02:20:07.807Z,1.20
2022-12-27T02:23:13.006Z,1.02
2022-12-27T02:25:51.422Z,1.67
2022-12-27T02:28:27.283Z,1.27
2022-12-27T02:31:00.957Z,2.20
2022-12-27T02:33:31.166Z,2.45
2022-12-27T02:36:02.113Z,1.42
2022-12-27T02:38:32.453Z,1.20
2022-12-27T02:41:19.399Z,1.38
2022-12-27T02:44:06.050Z,2.20
2022-12-27T02:46:55.541Z,1.58
2022-12-27T02:49:44.904Z,1.67
2022-12-27T02:52:45.327Z,1.33
2022-12-27T02:55:21.518Z,1.05
2022-12-27T02:57:53.001Z,1.30
2022-12-27T03:00:35.927Z,2.50
2022-12-27T03:03:24.886Z,1.75
2022-12-27T03:06:27.818Z,2.05
2022-12-27T03:08:59.548Z,2.03
2022-12-27T03:11:48.996Z,1.50
2022-12-27T03:14:36.925Z,1.60
2022-12-27T03:17:07.717Z,2.08
2022-12-27T03:19:59.912Z,1.55
2022-12-27T03:22:47.189Z,1.40
2022-12-27T03:25:29.067Z,1.70
2022-12-27T03:28:15.261Z,2.03
2022-12-27T03:31:04.122Z,1.30
2022-12-27T03:33:33.691Z,1.60
2022-12-27T03:36:24.321Z,1.65
2022-12-27T03:38:54.518Z,1.27
2022-12-27T03:41:43.577Z,1.52
2022-12-27T03:44:25.172Z,1.50
2022-12-27T03:46:55.584Z,1.58
2022-12-27T03:49:28.209Z,1.42
2022-12-27T03:52:07.797Z,1.65
2022-12-27T03:54:38.116Z,1.42
2022-12-27T03:57:11.529Z,1.10
2022-12-27T03:59:42.463Z,1.90
2022-12-27T04:02:11.128Z,1.48
2022-12-27T04:04:41.396Z,1.50
2022-12-27T04:07:12.732Z,1.25
2022-12-27T04:09:58.508Z,1.45
2022-12-27T04:12:44.733Z,1.00
2022-12-27T04:15:30.856Z,1.45
2022-12-27T04:18:17.021Z,2.03
2022-12-27T04:21:03.087Z,1.52
2022-12-27T04:23:50.860Z,1.20
2022-12-27T04:26:37.062Z,1.20
2022-12-27T04:29:23.254Z,1.73
2022-12-27T04:32:09.163Z,1.20
2022-12-27T04:34:46.684Z,2.13
2022-12-27T04:37:20.662Z,1.50
2022-12-27T04:40:10.856Z,1.60
2022-12-27T04:42:58.939Z,2.58
2022-12-27T04:45:45.394Z,1.65
2022-12-27T04:48:38.391Z,1.52
2022-12-27T04:51:26.764Z,2.38
2022-12-27T04:54:12.556Z,1.52
2022-12-27T04:56:42.466Z,1.67
2022-12-27T04:59:28.240Z,1.63
2022-12-27T05:02:05.788Z,2.60
2022-12-27T05:04:34.923Z,1.67
2022-12-27T05:07:23.834Z,1.92
2022-12-27T05:10:10.164Z,2.00
2022-12-27T05:12:57.463Z,1.70
2022-12-27T05:15:25.730Z,1.42
2022-12-27T05:17:54.028Z,2.00
2022-12-27T05:20:22.295Z,1.70
2022-12-27T05:23:08.224Z,1.27
2022-12-27T05:25:38.137Z,1.50
2022-12-27T05:28:08.921Z,1.58
2022-12-27T05:30:37.949Z,2.45
2022-12-27T05:33:06.471Z,1.38
2022-12-27T05:35:35.409Z,1.80
2022-12-27T05:38:03.914Z,1.45
2022-12-27T05:40:32.364Z,1.73
2022-12-27T05:43:00.952Z,2.25
2022-12-27T05:45:31.160Z,1.65
2022-12-27T05:48:00.226Z,1.90
2022-12-27T05:50:30.602Z,1.23
2022-12-27T05:53:11.555Z,1.23
2022-12-27T05:55:39.926Z,1.75
2022-12-27T05:58:08.255Z,1.00
2022-12-27T06:00:38.065Z,1.58
2022-12-27T06:03:06.527Z,2.47
2022-12-27T06:05:34.857Z,1.63
2022-12-27T06:08:03.228Z,1.55
2022-12-27T06:10:35.313Z,1.05
2022-12-27T06:13:05.480Z,1.48
2022-12-27T06:15:34.079Z,1.67
2022-12-27T06:18:03.747Z,1.27
2022-12-27T06:20:32.252Z,1.60
2022-12-27T06:23:04.929Z,1.80
2022-12-27T06:25:33.243Z,2.08
2022-12-27T06:28:02.576Z,1.65
2022-12-27T06:30:36.449Z,1.42
2022-12-27T06:33:06.383Z,1.67
2022-12-27T06:35:34.669Z,1.55
2022-12-27T06:38:02.872Z,1.55
2022-12-27T06:40:31.252Z,1.25
2022-12-27T06:43:00.686Z,1.52
2022-12-27T06:45:28.942Z,1.52
2022-12-27T06:47:57.303Z,1.08
2022-12-27T06:50:27.307Z,1.35
2022-12-27T06:52:55.570Z,1.63
2022-12-27T06:55:24.124Z,1.55
2022-12-27T06:57:52.480Z,1.13
2022-12-27T07:00:21.146Z,1.02
2022-12-27T07:02:51.705Z,1.38
2022-12-27T07:05:19.988Z,1.50
2022-12-27T07:07:55.741Z,1.80
2022-12-27T07:10:24.321Z,2.10
2022-12-27T07:12:55.019Z,1.05
2022-12-27T07:15:23.284Z,1.45
2022-12-27T07:17:51.706Z,1.50
2022-12-27T07:20:22.252Z,1.40
2022-12-27T07:22:51.914Z,1.15
2022-12-27T07:25:20.292Z,1.38
2022-12-27T07:27:48.929Z,1.20
2022-12-27T07:30:20.467Z,1.33
2022-12-27T07:32:52.749Z,0.93
2022-12-27T07:35:23.780Z,1.63
2022-12-27T07:37:53.496Z,1.45
2022-12-27T07:40:24.018Z,1.55
2022-12-27T07:42:52.335Z,2.17
2022-12-27T07:45:20.688Z,1.25
2022-12-27T07:47:48.936Z,1.70
2022-12-27T07:50:17.819Z,1.20
2022-12-27T07:52:46.900Z,1.38
2022-12-27T07:55:18.746Z,2.15
2022-12-27T07:57:46.962Z,1.60
2022-12-27T08:00:15.984Z,1.33
2022-12-27T08:02:44.401Z,1.48
2022-12-27T08:05:13.723Z,1.65
2022-12-27T08:07:43.195Z,1.38
2022-12-27T08:10:11.935Z,1.55
2022-12-27T08:12:42.421Z,2.00
2022-12-27T08:15:12.874Z,2.10
2022-12-27T08:17:41.132Z,1.70
2022-12-27T08:20:12.141Z,1.50
2022-12-27T08:22:42.267Z,2.10
2022-12-27T08:25:12.941Z,1.70
2022-12-27T08:27:42.662Z,1.73
2022-12-27T08:30:11.451Z,2.25
2022-12-27T08:32:39.669Z,2.88
2022-12-27T08:35:41.799Z,1.88
2022-12-27T08:37:56.630Z,1.95
2022-12-27T08:40:24.897Z,1.65
2022-12-27T08:42:54.503Z,2.05
2022-12-27T08:45:22.841Z,2.00
2022-12-27T08:47:51.121Z,2.45
2022-12-27T08:50:19.697Z,1.75
2022-12-27T08:52:48.503Z,1.80
2022-12-27T08:55:16.829Z,2.38
2022-12-27T08:57:45.186Z,1.95
2022-12-27T09:00:15.868Z,1.95
2022-12-27T09:02:44.281Z,2.88
2022-12-27T09:05:12.786Z,2.40
2022-12-27T09:07:41.107Z,1.83
2022-12-27T09:10:11.835Z,1.73
2022-12-27T09:12:40.235Z,1.90
2022-12-27T09:15:09.524Z,2.38
2022-12-27T09:17:39.142Z,2.40
2022-12-27T09:20:08.069Z,2.15
2022-12-27T09:22:36.918Z,2.35
2022-12-27T09:25:05.571Z,2.53
2022-12-27T09:27:35.564Z,2.63
2022-12-27T09:30:04.020Z,2.60
2022-12-27T09:32:32.267Z,3.35
2022-12-27T09:35:03.214Z,2.70
2022-12-27T09:37:31.588Z,2.20
2022-12-27T09:40:00.721Z,2.65
2022-12-27T09:42:50.728Z,4.18
2022-12-27T09:45:26.549Z,3.08
2022-12-27T09:47:57.095Z,2.45
2022-12-27T09:50:29.588Z,2.88
2022-12-27T09:53:01.871Z,3.08
2022-12-27T09:55:38.777Z,3.35
2022-12-27T09:58:15.535Z,2.92
2022-12-27T10:00:46.510Z,2.35
2022-12-27T10:03:15.316Z,2.95
2022-12-27T10:05:50.863Z,2.22
2022-12-27T10:08:30.741Z,2.40
2022-12-27T10:11:04.006Z,3.17
2022-12-27T10:13:39.486Z,2.63
2022-12-27T10:16:17.189Z,2.80
2022-12-27T10:18:53.649Z,2.90
2022-12-27T10:21:24.378Z,2.70
2022-12-27T10:23:55.947Z,3.95
2022-12-27T10:26:24.739Z,3.50
2022-12-27T10:28:57.326Z,3.00
2022-12-27T10:31:26.384Z,4.72
2022-12-27T10:33:57.131Z,3.90
2022-12-27T10:36:31.810Z,2.97
2022-12-27T10:39:00.474Z,3.50
2022-12-27T10:41:33.902Z,2.88
2022-12-27T10:44:02.281Z,3.15
2022-12-27T10:46:33.352Z,3.30
2022-12-27T10:51:55.409Z,3.65
2022-12-27T10:54:25.288Z,3.75
2022-12-27T10:56:54.343Z,4.18
2022-12-27T10:59:23.388Z,3.75
2022-12-27T11:02:08.928Z,4.13
2022-12-27T11:04:37.410Z,4.00
2022-12-27T11:07:20.281Z,3.75
2022-12-27T11:09:51.485Z,3.17
2022-12-27T11:12:21.245Z,4.13
2022-12-27T11:14:56.745Z,3.97
2022-12-27T11:17:25.997Z,3.80
2022-12-27T11:19:54.520Z,3.88
2022-12-27T11:22:24.320Z,3.60
2022-12-27T11:24:53.889Z,3.50
2022-12-27T11:27:25.013Z,4.57
2022-12-27T11:29:56.009Z,3.80
2022-12-27T11:32:24.903Z,3.80
2022-12-27T11:34:54.543Z,4.05
2022-12-27T11:37:25.985Z,4.00
2022-12-27T11:39:55.490Z,3.28
2022-12-27T11:42:32.429Z,3.78
2022-12-27T11:45:05.222Z,3.88
2022-12-27T11:47:36.283Z,3.47
2022-12-27T11:50:18.925Z,3.65
2022-12-27T11:52:55.489Z,3.25
2022-12-27T11:55:35.484Z,4.25
2022-12-27T11:58:16.002Z,3.85
2022-12-27T12:00:49.154Z,3.17
2022-12-27T12:03:32.312Z,3.70
2022-12-27T12:06:06.219Z,3.38
2022-12-27T12:08:51.902Z,2.75
2022-12-27T12:11:25.801Z,3.20
2022-12-27T12:14:05.157Z,4.55
2022-12-27T12:16:42.151Z,4.70
2022-12-27T12:19:14.290Z,3.50
2022-12-27T12:21:49.714Z,2.92
2022-12-27T12:24:31.479Z,2.70
2022-12-27T12:27:07.376Z,3.38
2022-12-27T12:29:40.860Z,3.60
2022-12-27T12:32:28.819Z,3.42
2022-12-27T12:35:07.649Z,3.65
2022-12-27T12:37:47.034Z,2.80
2022-12-27T12:40:26.938Z,2.80
2022-12-27T12:43:05.847Z,2.85
2022-12-27T12:45:41.834Z,2.60
2022-12-27T12:48:26.659Z,3.30
2022-12-27T12:51:05.716Z,2.42
2022-12-27T12:53:53.820Z,2.10
2022-12-27T12:56:38.883Z,3.75
2022-12-27T12:59:17.995Z,2.90
2022-12-27T13:01:54.009Z,2.78
2022-12-27T13:04:36.051Z,3.05
2022-12-27T13:07:36.081Z,2.47
2022-12-27T13:10:27.540Z,2.85
2022-12-27T13:13:03.621Z,3.03
2022-12-27T13:15:42.141Z,3.25
2022-12-27T13:18:26.605Z,3.58
2022-12-27T13:21:05.420Z,2.45
2022-12-27T13:23:44.605Z,2.65
2022-12-27T13:26:24.835Z,2.75
2022-12-27T13:29:06.569Z,2.40
2022-12-27T13:31:42.015Z,2.72
2022-12-27T13:34:19.607Z,2.33
2022-12-27T13:36:53.773Z,2.80
2022-12-27T13:39:37.503Z,3.67
2022-12-27T13:42:20.404Z,2.40
2022-12-27T13:45:03.462Z,2.60
2022-12-27T13:47:58.065Z,2.63
2022-12-27T13:50:35.781Z,3.15
2022-12-27T13:53:19.048Z,3.08
2022-12-27T13:55:53.842Z,2.22
2022-12-27T13:58:59.556Z,2.40
2022-12-27T14:01:43.659Z,2.30
2022-12-27T14:04:26.062Z,2.10
2022-12-27T14:07:13.476Z,2.72
2022-12-27T14:09:56.578Z,2.75
2022-12-27T14:12:43.373Z,2.95
2022-12-27T14:15:15.114Z,3.13
2022-12-27T14:17:46.688Z,2.75
2022-12-27T14:20:22.405Z,2.60
2022-12-27T14:23:09.069Z,2.55
2022-12-27T14:25:55.013Z,2.25
2022-12-27T14:28:39.846Z,2.67
2022-12-27T14:31:35.870Z,2.08
2022-12-27T14:34:19.367Z,2.97
2022-12-27T14:37:06.491Z,2.50
2022-12-27T14:39:49.676Z,2.60
2022-12-27T14:42:44.959Z,2.90
2022-12-27T14:45:33.065Z,2.90
2022-12-27T14:48:03.072Z,2.83
2022-12-27T14:50:55.595Z,2.75
2022-12-27T14:53:40.748Z,2.97
2022-12-27T14:56:13.407Z,2.58
2022-12-27T14:59:05.955Z,2.42
2022-12-27T15:01:41.193Z,2.67
2022-12-27T15:04:29.458Z,2.70
2022-12-27T15:07:04.025Z,2.40
2022-12-27T15:09:39.828Z,3.25
2022-12-27T15:12:15.893Z,2.80
2022-12-27T15:14:50.774Z,3.10
2022-12-27T15:17:24.634Z,2.90
2022-12-27T15:20:12.052Z,3.42
2022-12-27T15:22:48.086Z,3.78
2022-12-27T15:25:22.997Z,3.80
2022-12-27T15:27:56.696Z,2.53
2022-12-27T15:30:26.814Z,2.90
2022-12-27T15:33:01.831Z,3.20
2022-12-27T15:35:44.867Z,3.45
2022-12-27T15:38:33.736Z,3.38
2022-12-27T15:41:20.651Z,4.32
2022-12-27T15:44:07.517Z,3.38
2022-12-27T15:46:45.397Z,3.38
2022-12-27T15:49:19.370Z,3.70
2022-12-27T15:51:51.271Z,4.43
2022-12-27T15:54:31.640Z,4.22
2022-12-27T15:57:08.586Z,4.10
2022-12-27T15:59:46.715Z,3.55
2022-12-27T16:02:31.746Z,3.30
2022-12-27T16:05:04.016Z,3.10
2022-12-27T16:07:40.796Z,3.88
2022-12-27T16:10:30.619Z,3.50
2022-12-27T16:13:00.962Z,4.03
2022-12-27T16:15:40.911Z,4.13
2022-12-27T16:18:15.066Z,4.43
2022-12-27T16:20:43.354Z,3.97
2022-12-27T16:23:14.885Z,4.05
2022-12-27T16:25:43.465Z,3.85
2022-12-27T16:28:20.189Z,4.00
2022-12-27T16:30:50.016Z,3.85
2022-12-27T16:33:39.083Z,3.88
2022-12-27T16:36:13.674Z,3.35
2022-12-27T16:38:50.563Z,3.60
2022-12-27T16:41:24.861Z,3.05
2022-12-27T16:43:58.158Z,3.13
2022-12-27T16:46:36.056Z,2.65
2022-12-27T16:49:16.024Z,3.35
2022-12-27T16:51:55.167Z,3.78
2022-12-27T16:54:28.276Z,3.00
2022-12-27T16:57:22.901Z,3.03
2022-12-27T17:00:07.056Z,3.35
2022-12-27T17:02:43.097Z,3.05
2022-12-27T17:05:30.376Z,3.55
2022-12-27T17:08:15.203Z,3.10
2022-12-27T17:11:02.160Z,3.75
2022-12-27T17:13:37.556Z,2.75
2022-12-27T17:16:10.177Z,3.20
2022-12-27T17:18:47.689Z,2.13
2022-12-27T17:21:17.965Z,2.67
2022-12-27T17:23:48.760Z,3.85
2022-12-27T17:26:36.239Z,2.97
2022-12-27T17:29:11.503Z,3.97
2022-12-27T17:31:46.309Z,3.08
2022-12-27T17:34:20.459Z,2.85
2022-12-27T17:36:57.837Z,2.40
2022-12-27T17:39:39.142Z,2.47
2022-12-27T17:42:31.346Z,2.33
2022-12-27T17:45:05.077Z,2.72
2022-12-27T17:47:42.706Z,3.00
2022-12-27T17:50:14.733Z,3.22
2022-12-27T17:53:00.689Z,2.25
2022-12-27T17:55:53.513Z,2.05
2022-12-27T17:58:25.559Z,2.67
2022-12-27T18:01:00.267Z,2.67
2022-12-27T18:03:35.081Z,2.58
2022-12-27T18:06:03.788Z,1.98
2022-12-27T18:08:36.090Z,2.95
2022-12-27T18:11:06.876Z,2.45
2022-12-27T18:13:38.855Z,3.13
2022-12-27T18:16:11.708Z,2.97
2022-12-27T18:18:47.188Z,2.35
2022-12-27T18:21:22.586Z,2.40
2022-12-27T18:23:59.821Z,2.72
2022-12-27T18:26:38.579Z,1.90
2022-12-27T18:29:16.748Z,2.28
2022-12-27T18:31:59.796Z,2.53
2022-12-27T18:34:38.016Z,2.88
2022-12-27T18:37:07.626Z,1.98
2022-12-27T18:39:37.258Z,2.40
2022-12-27T18:42:07.846Z,2.03
2022-12-27T18:44:40.740Z,2.97
2022-12-27T18:47:19.945Z,2.15
2022-12-27T18:49:52.935Z,2.60
2022-12-27T18:52:25.021Z,2.45
2022-12-27T18:54:53.808Z,2.70
2022-12-27T18:57:35.118Z,2.75
2022-12-27T19:00:07.709Z,3.08
2022-12-27T19:02:37.030Z,2.58
2022-12-27T19:05:15.976Z,2.83
2022-12-27T19:07:44.610Z,2.60
2022-12-27T19:10:17.652Z,2.15
2022-12-27T19:12:52.568Z,2.88
2022-12-27T19:15:22.736Z,3.30
2022-12-27T19:17:55.042Z,2.13
2022-12-27T19:20:24.749Z,3.05
2022-12-27T19:22:55.429Z,2.60
2022-12-27T19:25:24.984Z,3.35
2022-12-27T19:28:06.933Z,2.65
2022-12-27T19:30:41.985Z,2.65
2022-12-27T19:33:15.278Z,2.70
2022-12-27T19:35:43.921Z,2.67
2022-12-27T19:38:19.006Z,2.40
2022-12-27T19:40:47.705Z,2.03
2022-12-27T19:43:18.127Z,2.05
2022-12-27T19:45:46.626Z,2.83
2022-12-27T19:48:17.754Z,2.72
2022-12-27T19:50:48.447Z,2.53
2022-12-27T19:53:18.280Z,2.70
2022-12-27T19:55:46.807Z,2.00
2022-12-27T19:58:23.145Z,1.85
2022-12-27T20:00:51.550Z,2.00
2022-12-27T20:03:20.601Z,1.95
2022-12-27T20:06:11.197Z,1.85
2022-12-27T20:08:42.914Z,2.92
2022-12-27T20:11:14.784Z,2.33
2022-12-27T20:13:46.770Z,2.20
2022-12-27T20:16:21.594Z,2.80
2022-12-27T20:18:50.226Z,1.95
2022-12-27T20:21:20.851Z,2.35
2022-12-27T20:23:57.855Z,3.03
2022-12-27T20:26:28.976Z,1.70
2022-12-27T20:29:01.400Z,2.15
2022-12-27T20:31:32.732Z,2.53
2022-12-27T20:34:07.448Z,1.98
2022-12-27T20:36:44.496Z,1.92
2022-12-27T20:39:15.154Z,2.17
2022-12-27T20:41:44.608Z,3.00
2022-12-27T20:44:15.619Z,2.17
2022-12-27T20:46:46.982Z,1.85
2022-12-27T20:49:20.119Z,2.40
2022-12-27T20:51:48.851Z,1.98
2022-12-27T20:54:17.667Z,2.30
2022-12-27T20:56:46.021Z,2.17
2022-12-27T20:59:20.265Z,2.60
2022-12-27T21:01:57.012Z,2.42
2022-12-27T21:04:26.862Z,2.22
2022-12-27T21:06:58.113Z,2.70
2022-12-27T21:09:30.951Z,2.95
2022-12-27T21:12:04.566Z,2.28
2022-12-27T21:14:37.235Z,2.20
2022-12-27T21:17:12.343Z,2.47
2022-12-27T21:19:40.669Z,2.20
2022-12-27T21:22:08.872Z,2.33
2022-12-27T21:24:37.203Z,1.90
2022-12-27T21:27:09.193Z,1.92
2022-12-27T21:29:46.691Z,2.17
2022-12-27T21:32:27.359Z,2.70
2022-12-27T21:34:58.051Z,2.78
2022-12-27T21:37:29.481Z,1.88
2022-12-27T21:40:01.034Z,2.30
2022-12-27T21:42:38.087Z,2.05
2022-12-27T21:45:10.334Z,1.50
2022-12-27T21:47:41.836Z,1.90
2022-12-27T21:50:18.029Z,2.03
2022-12-27T21:52:49.705Z,2.72
2022-12-27T21:55:20.534Z,1.83
2022-12-27T21:57:51.170Z,2.20
2022-12-27T22:00:27.055Z,2.08
2022-12-27T22:03:00.026Z,2.58
2022-12-27T22:05:44.314Z,1.98
2022-12-27T22:08:13.799Z,2.53
2022-12-27T22:10:45.377Z,2.05
2022-12-27T22:13:19.774Z,1.92
2022-12-27T22:16:00.757Z,1.88
2022-12-27T22:18:33.217Z,2.60
2022-12-27T22:21:02.027Z,2.20
2022-12-27T22:23:35.599Z,1.98
2022-12-27T22:26:03.892Z,2.28
2022-12-27T22:28:32.228Z,1.92
2022-12-27T22:31:06.241Z,2.55
2022-12-27T22:33:34.882Z,2.42
2022-12-27T22:36:03.979Z,1.95
2022-12-27T22:38:37.065Z,2.60
2022-12-27T22:41:08.437Z,2.53
2022-12-27T22:43:36.944Z,2.35
2022-12-27T22:46:08.815Z,2.42
2022-12-27T22:48:41.732Z,2.10
2022-12-27T22:51:12.541Z,2.55
2022-12-27T22:53:41.207Z,2.65
2022-12-27T22:56:13.729Z,2.72
2022-12-27T22:58:42.156Z,2.90
2022-12-27T23:01:15.267Z,2.58
2022-12-27T23:03:44.058Z,2.33
2022-12-27T23:06:12.572Z,2.75
2022-12-27T23:08:40.964Z,3.10
2022-12-27T23:11:12.576Z,2.53
2022-12-27T23:13:41.172Z,2.50
2022-12-27T23:16:09.948Z,2.40
2022-12-27T23:18:40.413Z,2.80
2022-12-27T23:21:20.207Z,2.90
2022-12-27T23:23:52.262Z,3.10
2022-12-27T23:26:21.745Z,2.33
2022-12-27T23:28:50.591Z,3.03
2022-12-27T23:31:19.940Z,2.85
2022-12-27T23:33:49.965Z,2.83
2022-12-27T23:36:20.703Z,3.38
2022-12-27T23:38:49.131Z,2.53
2022-12-27T23:41:18.928Z,3.15
2022-12-27T23:43:52.687Z,3.90
2022-12-27T23:46:23.731Z,2.97
2022-12-27T23:48:53.624Z,3.35
2022-12-27T23:51:22.659Z,3.17
2022-12-27T23:53:51.224Z,2.50
2022-12-27T23:56:20.513Z,3.40
2022-12-27T23:58:48.870Z,2.90
